Time;durP1;ratioP1;P1;durP2;ratioP2;P2;SDS_P1;SDS_P2;PMS_P1;PMS_P2;Temp;Humidity;BMP_temperature;BMP_pressure;BME280_temperature;BME280_humidity;BME280_pressure;Samples;Min_cycle;Max_cycle;Signal;HPM_P1;HPM_P2
2022/03/26 00:01:38;;;;;;;32.30;20.27;;;;;;;;;;5050639;28;20045;-73
2022/03/26 00:04:05;;;;;;;34.92;20.90;;;;;;;;;;5048551;28;20060;-73
2022/03/26 00:06:32;;;;;;;35.20;20.98;;;;;;;;;;5048542;28;20036;-73
2022/03/26 00:08:58;;;;;;;32.85;21.08;;;;;;;;;;5048701;28;20506;-73
2022/03/26 00:11:24;;;;;;;35.78;21.17;;;;;;;;;;5051259;28;22291;-73
2022/03/26 00:13:50;;;;;;;38.58;22.00;;;;;;;;;;5025686;28;20959;-73
2022/03/26 00:16:16;;;;;;;35.03;21.17;;;;;;;;;;5028385;28;20102;-73
2022/03/26 00:18:42;;;;;;;32.60;21.10;;;;;;;;;;5046287;28;20484;-73
2022/03/26 00:21:08;;;;;;;34.75;21.83;;;;;;;;;;5044914;28;20560;-73
2022/03/26 00:23:34;;;;;;;43.00;22.10;;;;;;;;;;5025925;28;20048;-73
2022/03/26 00:26:01;;;;;;;35.95;21.55;;;;;;;;;;5046350;28;20044;-73
2022/03/26 00:28:27;;;;;;;30.80;20.13;;;;;;;;;;5046677;28;20429;-73
2022/03/26 00:30:54;;;;;;;36.13;20.17;;;;;;;;;;5048952;28;20044;-73
2022/03/26 00:33:20;;;;;;;41.22;22.23;;;;;;;;;;5048451;28;20049;-73
2022/03/26 00:35:46;;;;;;;36.92;22.15;;;;;;;;;;5029013;28;20128;-73
2022/03/26 00:38:13;;;;;;;31.30;20.63;;;;;;;;;;5048793;28;20091;-72
2022/03/26 00:40:40;;;;;;;38.60;20.30;;;;;;;;;;5048450;28;20036;-72
2022/03/26 00:43:06;;;;;;;37.72;19.77;;;;;;;;;;5048671;28;20041;-72
2022/03/26 00:45:34;;;;;;;34.70;20.75;;;;;;;;;;5043513;28;20044;-72
2022/03/26 00:48:01;;;;;;;39.85;20.65;;;;;;;;;;5043488;28;20409;-72
2022/03/26 00:50:27;;;;;;;35.50;19.60;;;;;;;;;;5029648;28;20040;-72
2022/03/26 00:52:53;;;;;;;28.20;18.65;;;;;;;;;;5025918;28;20123;-72
2022/03/26 00:55:19;;;;;;;30.90;19.35;;;;;;;;;;5044408;28;20033;-73
2022/03/26 00:57:45;;;;;;;28.58;18.70;;;;;;;;;;5047071;28;20044;-72
2022/03/26 01:00:12;;;;;;;38.35;22.90;;;;;;;;;;5047909;28;20405;-72
2022/03/26 01:02:38;;;;;;;47.63;24.05;;;;;;;;;;5047883;28;20041;-72
2022/03/26 01:05:05;;;;;;;37.47;24.38;;;;;;;;;;5044504;28;20477;-72
2022/03/26 01:07:31;;;;;;;46.17;25.88;;;;;;;;;;5049891;28;20519;-72
2022/03/26 01:09:57;;;;;;;40.38;25.80;;;;;;;;;;5048905;28;20558;-72
2022/03/26 01:12:24;;;;;;;39.00;24.45;;;;;;;;;;5047624;28;20057;-72
2022/03/26 01:14:51;;;;;;;40.25;24.58;;;;;;;;;;5047949;28;20485;-72
2022/03/26 01:17:17;;;;;;;39.70;25.05;;;;;;;;;;5043722;28;20396;-72
2022/03/26 01:19:43;;;;;;;42.10;25.33;;;;;;;;;;5045438;28;20055;-72
2022/03/26 01:22:09;;;;;;;39.90;25.15;;;;;;;;;;5045037;28;20036;-72
2022/03/26 01:24:35;;;;;;;38.53;24.27;;;;;;;;;;5046328;28;20455;-72
2022/03/26 01:27:01;;;;;;;36.53;23.38;;;;;;;;;;5050982;28;20549;-72
2022/03/26 01:29:27;;;;;;;41.28;23.52;;;;;;;;;;5048020;28;20421;-72
2022/03/26 01:31:53;;;;;;;41.95;25.08;;;;;;;;;;5023764;28;20044;-72
2022/03/26 01:34:22;;;;;;;36.97;22.88;;;;;;;;;;5047971;28;20083;-72
2022/03/26 01:36:48;;;;;;;36.38;22.90;;;;;;;;;;5047828;28;20457;-72
2022/03/26 01:39:14;;;;;;;41.88;24.50;;;;;;;;;;5051576;28;20380;-72
2022/03/26 01:41:40;;;;;;;41.78;24.65;;;;;;;;;;5044593;28;20075;-72
2022/03/26 01:44:11;;;;;;;37.85;23.48;;;;;;;;;;5048067;28;20036;-73
2022/03/26 01:46:44;;;;;;;44.92;25.45;;;;;;;;;;5026740;28;20408;-73
2022/03/26 01:49:10;;;;;;;46.05;27.13;;;;;;;;;;5044944;28;20069;-74
2022/03/26 01:51:36;;;;;;;51.88;29.60;;;;;;;;;;5047187;28;20105;-74
2022/03/26 01:54:02;;;;;;;48.40;29.35;;;;;;;;;;5049275;28;20037;-73
2022/03/26 01:56:28;;;;;;;50.60;29.55;;;;;;;;;;5030856;28;20059;-73
2022/03/26 01:58:54;;;;;;;50.42;29.42;;;;;;;;;;5049338;28;20044;-74
2022/03/26 02:01:21;;;;;;;51.53;30.05;;;;;;;;;;5032441;28;20041;-73
2022/03/26 02:03:47;;;;;;;49.15;30.20;;;;;;;;;;5053792;28;20143;-73
2022/03/26 02:06:13;;;;;;;56.00;31.10;;;;;;;;;;5050886;28;20037;-74
2022/03/26 02:08:39;;;;;;;48.25;29.48;;;;;;;;;;5050700;28;20045;-73
2022/03/26 02:11:05;;;;;;;48.38;29.70;;;;;;;;;;5048153;28;20037;-73
2022/03/26 02:13:50;;;;;;;45.78;29.30;;;;;;;;;;5027811;28;20039;-73
2022/03/26 02:16:16;;;;;;;49.42;29.30;;;;;;;;;;5052049;28;20033;-72
2022/03/26 02:18:42;;;;;;;49.75;29.42;;;;;;;;;;5055374;28;20070;-73
2022/03/26 02:21:09;;;;;;;57.03;30.90;;;;;;;;;;5046309;28;20037;-73
2022/03/26 02:23:35;;;;;;;48.47;27.58;;;;;;;;;;5047994;28;20037;-73
2022/03/26 02:26:01;;;;;;;50.47;27.25;;;;;;;;;;5029915;28;20496;-73
2022/03/26 02:28:27;;;;;;;48.67;28.50;;;;;;;;;;5048605;28;20044;-73
2022/03/26 02:30:53;;;;;;;50.47;29.83;;;;;;;;;;5025066;28;20190;-74
2022/03/26 02:33:19;;;;;;;57.17;32.75;;;;;;;;;;5047517;28;20037;-73
2022/03/26 02:35:45;;;;;;;58.10;34.45;;;;;;;;;;5049995;28;20040;-73
2022/03/26 02:38:11;;;;;;;60.78;35.70;;;;;;;;;;5049408;28;20401;-73
2022/03/26 02:40:37;;;;;;;62.08;36.75;;;;;;;;;;5050641;28;20086;-74
2022/03/26 02:43:06;;;;;;;63.92;36.60;;;;;;;;;;5048653;28;20078;-73
2022/03/26 02:45:32;;;;;;;53.55;34.03;;;;;;;;;;5047394;28;20045;-73
2022/03/26 02:47:58;;;;;;;67.60;37.45;;;;;;;;;;5049882;28;20052;-73
2022/03/26 02:50:24;;;;;;;68.97;39.55;;;;;;;;;;5048494;28;20071;-73
2022/03/26 02:52:51;;;;;;;66.05;38.38;;;;;;;;;;5031308;28;20115;-72
2022/03/26 02:55:17;;;;;;;69.72;38.58;;;;;;;;;;5031979;28;20048;-72
2022/03/26 02:57:46;;;;;;;74.18;40.70;;;;;;;;;;5047051;28;20033;-72
2022/03/26 03:00:13;;;;;;;58.35;33.50;;;;;;;;;;5034243;28;20053;-73
2022/03/26 03:02:40;;;;;;;61.97;34.92;;;;;;;;;;5048061;28;20496;-73
2022/03/26 03:05:07;;;;;;;60.30;34.40;;;;;;;;;;5047588;28;20087;-73
2022/03/26 03:07:33;;;;;;;63.65;36.67;;;;;;;;;;5048649;28;20132;-73
2022/03/26 03:09:59;;;;;;;68.93;39.03;;;;;;;;;;5051934;28;20056;-73
2022/03/26 03:12:26;;;;;;;75.97;42.75;;;;;;;;;;5032217;28;20041;-72
2022/03/26 03:14:53;;;;;;;73.82;41.22;;;;;;;;;;5050010;28;20408;-72
2022/03/26 03:17:19;;;;;;;68.93;39.58;;;;;;;;;;5046613;28;20127;-73
2022/03/26 03:19:45;;;;;;;68.13;38.97;;;;;;;;;;5050582;28;20025;-72
2022/03/26 03:22:11;;;;;;;69.32;38.85;;;;;;;;;;5030528;28;20032;-72
2022/03/26 03:24:37;;;;;;;70.32;40.38;;;;;;;;;;5048402;28;20384;-73
2022/03/26 03:27:04;;;;;;;66.72;38.42;;;;;;;;;;5050441;28;20048;-73
2022/03/26 03:29:30;;;;;;;76.57;40.50;;;;;;;;;;5052214;28;20049;-73
2022/03/26 03:31:56;;;;;;;81.07;40.00;;;;;;;;;;5037876;28;20044;-73
2022/03/26 03:34:23;;;;;;;73.00;40.88;;;;;;;;;;5042586;28;20029;-72
2022/03/26 03:36:49;;;;;;;73.35;40.58;;;;;;;;;;5045056;28;20040;-72
2022/03/26 03:39:15;;;;;;;70.38;39.72;;;;;;;;;;5049608;28;20036;-73
2022/03/26 03:41:41;;;;;;;68.68;39.15;;;;;;;;;;5051129;28;20037;-73
2022/03/26 03:44:07;;;;;;;73.82;43.10;;;;;;;;;;5048477;28;20124;-72
2022/03/26 03:46:34;;;;;;;72.90;40.85;;;;;;;;;;5028931;28;20413;-72
2022/03/26 03:49:00;;;;;;;68.20;40.03;;;;;;;;;;5071849;28;20067;-72
2022/03/26 03:51:26;;;;;;;75.82;40.72;;;;;;;;;;5028992;28;20073;-72
2022/03/26 03:53:52;;;;;;;68.57;39.25;;;;;;;;;;5051984;28;20120;-72
2022/03/26 03:56:19;;;;;;;72.57;40.65;;;;;;;;;;5045905;28;20389;-72
2022/03/26 03:58:45;;;;;;;71.55;40.55;;;;;;;;;;5044016;28;21089;-73
2022/03/26 04:01:11;;;;;;;76.00;40.78;;;;;;;;;;5048327;28;20373;-72
2022/03/26 04:03:37;;;;;;;76.03;40.92;;;;;;;;;;5047625;28;20118;-73
2022/03/26 04:06:03;;;;;;;76.65;41.88;;;;;;;;;;5045580;28;20048;-72
2022/03/26 04:08:29;;;;;;;89.93;46.55;;;;;;;;;;5046283;28;22182;-74
2022/03/26 04:10:56;;;;;;;77.90;43.60;;;;;;;;;;5044907;28;20404;-73
2022/03/26 04:13:22;;;;;;;82.30;41.70;;;;;;;;;;5048418;28;20505;-73
2022/03/26 04:15:48;;;;;;;80.10;45.13;;;;;;;;;;5050951;28;20522;-73
2022/03/26 04:18:14;;;;;;;81.15;44.95;;;;;;;;;;5048688;28;20394;-72
2022/03/26 04:20:40;;;;;;;102.05;52.42;;;;;;;;;;5047331;28;20409;-72
2022/03/26 04:23:06;;;;;;;91.25;48.78;;;;;;;;;;5047908;28;20369;-74
2022/03/26 04:25:32;;;;;;;93.97;49.97;;;;;;;;;;5029556;28;20427;-72
2022/03/26 04:27:58;;;;;;;92.93;47.33;;;;;;;;;;5033045;28;20367;-72
2022/03/26 04:30:24;;;;;;;81.55;45.88;;;;;;;;;;5048157;28;20424;-73
2022/03/26 04:32:51;;;;;;;86.60;45.63;;;;;;;;;;5048977;28;20578;-73
2022/03/26 04:35:17;;;;;;;75.07;42.67;;;;;;;;;;5046126;28;20037;-72
2022/03/26 04:37:43;;;;;;;68.38;40.05;;;;;;;;;;5044802;28;20400;-72
2022/03/26 04:40:11;;;;;;;66.38;38.60;;;;;;;;;;5046819;28;21018;-72
2022/03/26 04:42:37;;;;;;;74.75;40.97;;;;;;;;;;5049045;28;20573;-72
2022/03/26 04:45:04;;;;;;;77.70;41.92;;;;;;;;;;5030222;28;20597;-72
2022/03/26 04:47:30;;;;;;;74.03;41.28;;;;;;;;;;5031423;28;20044;-72
2022/03/26 04:49:56;;;;;;;73.78;42.20;;;;;;;;;;5042690;28;20781;-72
2022/03/26 04:52:22;;;;;;;80.30;42.55;;;;;;;;;;5035008;28;20044;-72
2022/03/26 04:54:48;;;;;;;102.00;55.03;;;;;;;;;;5016232;28;20051;-72
2022/03/26 04:57:17;;;;;;;103.10;52.80;;;;;;;;;;5049020;28;20033;-72
2022/03/26 04:59:43;;;;;;;78.22;43.17;;;;;;;;;;5047205;28;20086;-72
2022/03/26 05:02:09;;;;;;;88.95;44.10;;;;;;;;;;5051017;28;20513;-72
2022/03/26 05:04:35;;;;;;;88.57;45.25;;;;;;;;;;5047499;28;20423;-72
2022/03/26 05:07:45;;;;;;;77.05;41.38;;;;;;;;;;5033348;28;20037;-72
2022/03/26 05:09:47;;;;;;;81.88;43.80;;;;;;;;;;5044806;28;20128;-72
2022/03/26 05:12:13;;;;;;;85.10;44.03;;;;;;;;;;5045200;28;20068;-72
2022/03/26 05:14:39;;;;;;;77.30;42.15;;;;;;;;;;5030579;28;20038;-72
2022/03/26 05:17:05;;;;;;;72.40;40.42;;;;;;;;;;5045114;28;20451;-72
2022/03/26 05:19:31;;;;;;;82.30;44.13;;;;;;;;;;5046522;28;20033;-72
2022/03/26 05:21:58;;;;;;;80.72;45.63;;;;;;;;;;5049232;28;20029;-72
2022/03/26 05:24:24;;;;;;;81.40;44.10;;;;;;;;;;5063306;28;20601;-72
2022/03/26 05:26:50;;;;;;;82.43;44.17;;;;;;;;;;5056270;28;20044;-72
2022/03/26 05:29:16;;;;;;;92.95;50.20;;;;;;;;;;5054239;28;20184;-72
2022/03/26 05:31:42;;;;;;;91.22;49.53;;;;;;;;;;5052325;28;20064;-72
2022/03/26 05:34:08;;;;;;;105.38;53.97;;;;;;;;;;5053791;28;20386;-73
2022/03/26 05:36:34;;;;;;;105.90;54.72;;;;;;;;;;5037499;28;20128;-72
2022/03/26 05:39:00;;;;;;;82.50;43.63;;;;;;;;;;5052248;28;20079;-72
2022/03/26 05:41:27;;;;;;;79.10;42.00;;;;;;;;;;5036174;28;20044;-72
2022/03/26 05:43:53;;;;;;;90.28;46.60;;;;;;;;;;5020122;28;20035;-72
2022/03/26 05:46:19;;;;;;;95.40;48.40;;;;;;;;;;5053527;28;20039;-72
2022/03/26 05:48:46;;;;;;;90.40;45.97;;;;;;;;;;5052625;28;20063;-72
2022/03/26 05:51:12;;;;;;;86.30;45.83;;;;;;;;;;5036349;28;20044;-72
2022/03/26 05:53:38;;;;;;;90.40;47.88;;;;;;;;;;5033644;28;20041;-72
2022/03/26 05:56:04;;;;;;;92.70;47.90;;;;;;;;;;5052466;28;20041;-72
2022/03/26 05:58:30;;;;;;;88.25;44.88;;;;;;;;;;5053389;28;20033;-72
2022/03/26 06:00:58;;;;;;;88.70;47.35;;;;;;;;;;5049793;28;20040;-72
2022/03/26 06:03:24;;;;;;;87.82;46.22;;;;;;;;;;5053102;28;20051;-72
2022/03/26 06:05:50;;;;;;;101.55;47.45;;;;;;;;;;5053184;28;20045;-72
2022/03/26 06:08:16;;;;;;;87.65;47.20;;;;;;;;;;5053351;28;20411;-72
2022/03/26 06:10:42;;;;;;;90.93;46.22;;;;;;;;;;5049195;28;20079;-72
2022/03/26 06:13:09;;;;;;;88.72;46.40;;;;;;;;;;5052881;28;20049;-72
2022/03/26 06:15:35;;;;;;;91.20;46.15;;;;;;;;;;5036521;28;20044;-72
2022/03/26 06:18:04;;;;;;;87.82;46.17;;;;;;;;;;5036234;28;20043;-72
2022/03/26 06:20:30;;;;;;;90.18;46.50;;;;;;;;;;5052072;28;20046;-72
2022/03/26 06:22:56;;;;;;;90.97;44.55;;;;;;;;;;5052455;28;20087;-73
2022/03/26 06:25:22;;;;;;;87.30;46.58;;;;;;;;;;5035326;28;20037;-72
2022/03/26 06:27:49;;;;;;;92.57;47.55;;;;;;;;;;5035759;28;20041;-72
2022/03/26 06:30:15;;;;;;;103.68;51.42;;;;;;;;;;5052354;28;20052;-72
2022/03/26 06:32:42;;;;;;;103.65;52.97;;;;;;;;;;5030646;28;20091;-72
2022/03/26 06:35:08;;;;;;;102.90;51.13;;;;;;;;;;5050036;28;20124;-72
2022/03/26 06:37:34;;;;;;;85.43;45.80;;;;;;;;;;5048202;28;20052;-72
2022/03/26 06:40:01;;;;;;;92.95;48.67;;;;;;;;;;5051838;28;20033;-72
2022/03/26 06:42:27;;;;;;;87.55;45.63;;;;;;;;;;5045591;28;20037;-73
2022/03/26 06:44:59;;;;;;;93.95;49.80;;;;;;;;;;5042699;28;20040;-73
2022/03/26 06:47:30;;;;;;;107.75;53.78;;;;;;;;;;5048839;28;20048;-73
2022/03/26 06:49:56;;;;;;;122.68;61.03;;;;;;;;;;5034931;28;20033;-73
2022/03/26 06:52:23;;;;;;;120.13;59.47;;;;;;;;;;5050426;28;20033;-73
2022/03/26 06:54:50;;;;;;;127.30;62.33;;;;;;;;;;5049739;28;20053;-73
2022/03/26 06:57:16;;;;;;;124.72;63.33;;;;;;;;;;5030013;28;20048;-73
2022/03/26 06:59:42;;;;;;;120.85;62.33;;;;;;;;;;5050035;28;20124;-73
2022/03/26 07:02:08;;;;;;;118.93;60.42;;;;;;;;;;5049569;28;20041;-73
2022/03/26 07:04:34;;;;;;;131.35;66.13;;;;;;;;;;5033748;28;20037;-73
2022/03/26 07:07:00;;;;;;;153.85;74.25;;;;;;;;;;5049820;28;20045;-73
2022/03/26 07:09:26;;;;;;;162.98;79.55;;;;;;;;;;5050687;28;20051;-73
2022/03/26 07:11:52;;;;;;;176.07;85.28;;;;;;;;;;5050335;28;20072;-73
2022/03/26 07:14:18;;;;;;;184.13;89.40;;;;;;;;;;5050986;28;20041;-73
2022/03/26 07:16:45;;;;;;;192.40;93.60;;;;;;;;;;5049952;28;20040;-73
2022/03/26 07:19:11;;;;;;;180.93;88.85;;;;;;;;;;5041558;28;20072;-73
2022/03/26 07:21:39;;;;;;;157.52;82.78;;;;;;;;;;5049025;28;20102;-73
2022/03/26 07:24:05;;;;;;;160.15;84.05;;;;;;;;;;5033317;28;20409;-73
2022/03/26 07:26:31;;;;;;;157.30;82.18;;;;;;;;;;5051903;28;20063;-73
2022/03/26 07:28:57;;;;;;;152.02;78.82;;;;;;;;;;5048755;28;20131;-73
2022/03/26 07:31:24;;;;;;;148.73;81.97;;;;;;;;;;5051027;28;20049;-73
2022/03/26 07:33:50;;;;;;;155.35;80.75;;;;;;;;;;5050966;28;20623;-73
2022/03/26 07:36:16;;;;;;;144.18;76.47;;;;;;;;;;5048177;28;20051;-73
2022/03/26 07:38:43;;;;;;;133.00;74.00;;;;;;;;;;5016808;28;20083;-73
2022/03/26 07:41:09;;;;;;;136.35;72.50;;;;;;;;;;5033708;28;20041;-73
2022/03/26 07:43:35;;;;;;;126.38;71.30;;;;;;;;;;5049525;28;20039;-73
2022/03/26 07:46:02;;;;;;;143.43;74.18;;;;;;;;;;5045735;28;20041;-73
2022/03/26 07:48:28;;;;;;;130.77;71.18;;;;;;;;;;5046670;28;20048;-73
2022/03/26 07:50:54;;;;;;;126.18;69.53;;;;;;;;;;5050844;28;20041;-73
2022/03/26 07:53:22;;;;;;;135.73;70.20;;;;;;;;;;5050943;28;20044;-73
2022/03/26 07:55:49;;;;;;;128.65;68.75;;;;;;;;;;5050311;28;20041;-73
2022/03/26 07:58:15;;;;;;;126.72;68.07;;;;;;;;;;5049996;28;20523;-73
2022/03/26 08:00:41;;;;;;;116.50;61.63;;;;;;;;;;5050572;28;20045;-74
2022/03/26 08:03:08;;;;;;;110.35;59.60;;;;;;;;;;5032062;28;20037;-74
2022/03/26 08:05:34;;;;;;;101.30;55.35;;;;;;;;;;5047280;28;20048;-73
2022/03/26 08:08:00;;;;;;;93.88;52.08;;;;;;;;;;5046611;28;20032;-73
2022/03/26 08:10:27;;;;;;;94.68;51.55;;;;;;;;;;5045538;28;20068;-73
2022/03/26 08:12:53;;;;;;;88.22;51.78;;;;;;;;;;5033463;28;20036;-74
2022/03/26 08:15:19;;;;;;;91.68;50.28;;;;;;;;;;5034411;28;20109;-73
2022/03/26 08:17:45;;;;;;;90.03;49.92;;;;;;;;;;5033814;28;20484;-73
2022/03/26 08:20:11;;;;;;;85.63;50.53;;;;;;;;;;5049084;28;20504;-73
2022/03/26 08:22:38;;;;;;;83.97;49.60;;;;;;;;;;5049246;28;20576;-74
2022/03/26 08:25:05;;;;;;;83.65;49.65;;;;;;;;;;5048700;28;20551;-73
2022/03/26 08:27:31;;;;;;;80.68;47.70;;;;;;;;;;5032216;28;20484;-73
2022/03/26 08:29:57;;;;;;;84.43;48.25;;;;;;;;;;5049295;28;20509;-74
2022/03/26 08:32:23;;;;;;;77.75;46.72;;;;;;;;;;5050250;28;20068;-73
2022/03/26 08:34:49;;;;;;;78.75;46.83;;;;;;;;;;5034142;28;20045;-72
2022/03/26 08:37:15;;;;;;;74.90;47.03;;;;;;;;;;5047288;28;20504;-73
2022/03/26 08:39:42;;;;;;;82.97;46.60;;;;;;;;;;5032101;28;20037;-72
2022/03/26 08:42:08;;;;;;;77.63;45.42;;;;;;;;;;5045552;28;20059;-73
2022/03/26 08:44:34;;;;;;;81.43;48.42;;;;;;;;;;5049357;28;20036;-73
2022/03/26 08:47:04;;;;;;;78.85;47.45;;;;;;;;;;5047161;28;20048;-73
2022/03/26 08:49:31;;;;;;;75.88;45.28;;;;;;;;;;5048148;28;20131;-73
2022/03/26 08:51:57;;;;;;;79.72;43.83;;;;;;;;;;5048921;28;20047;-73
2022/03/26 08:54:23;;;;;;;71.00;40.92;;;;;;;;;;5050205;28;20045;-73
2022/03/26 08:56:49;;;;;;;65.95;39.50;;;;;;;;;;5032100;28;20123;-73
2022/03/26 08:59:15;;;;;;;67.68;39.20;;;;;;;;;;5048011;28;20036;-73
2022/03/26 09:01:41;;;;;;;66.68;39.13;;;;;;;;;;5042738;28;20048;-73
2022/03/26 09:04:11;;;;;;;66.90;39.97;;;;;;;;;;5049918;28;20045;-73
2022/03/26 09:06:37;;;;;;;63.47;39.42;;;;;;;;;;5049846;28;20132;-74
2022/03/26 09:09:04;;;;;;;64.30;39.75;;;;;;;;;;5047261;28;20074;-74
2022/03/26 09:11:31;;;;;;;62.28;38.47;;;;;;;;;;5043814;28;20076;-74
2022/03/26 09:13:59;;;;;;;68.60;37.85;;;;;;;;;;5053528;28;20041;-74
2022/03/26 09:16:25;;;;;;;59.58;37.00;;;;;;;;;;5047435;28;20383;-74
2022/03/26 09:18:51;;;;;;;68.85;39.92;;;;;;;;;;5049611;28;20443;-73
2022/03/26 09:21:17;;;;;;;64.90;36.55;;;;;;;;;;5046098;28;20517;-74
2022/03/26 09:23:43;;;;;;;59.47;34.13;;;;;;;;;;5048614;28;20409;-73
2022/03/26 09:26:10;;;;;;;58.38;34.97;;;;;;;;;;5048890;28;20103;-74
2022/03/26 09:28:36;;;;;;;64.63;35.60;;;;;;;;;;5048469;28;20603;-74
2022/03/26 09:31:02;;;;;;;59.08;33.30;;;;;;;;;;5046804;28;20038;-74
2022/03/26 09:33:28;;;;;;;59.65;32.58;;;;;;;;;;5050797;28;20448;-73
2022/03/26 09:35:54;;;;;;;54.85;30.63;;;;;;;;;;5041010;28;20496;-74
2022/03/26 09:38:20;;;;;;;50.28;31.10;;;;;;;;;;5048277;28;20388;-73
2022/03/26 09:40:47;;;;;;;59.92;30.23;;;;;;;;;;5030931;28;20095;-73
2022/03/26 09:43:13;;;;;;;53.90;32.45;;;;;;;;;;5032437;28;20036;-73
2022/03/26 09:45:40;;;;;;;50.03;31.67;;;;;;;;;;5048750;28;20413;-74
2022/03/26 09:48:06;;;;;;;55.53;30.95;;;;;;;;;;5048821;28;20037;-74
2022/03/26 09:50:32;;;;;;;50.47;30.67;;;;;;;;;;5048567;28;20461;-74
2022/03/26 09:52:58;;;;;;;47.35;28.30;;;;;;;;;;5048930;28;20390;-74
2022/03/26 09:55:24;;;;;;;45.95;28.75;;;;;;;;;;5045689;28;20499;-75
2022/03/26 09:57:52;;;;;;;47.33;30.60;;;;;;;;;;5045437;28;20052;-74
2022/03/26 10:00:18;;;;;;;46.47;29.48;;;;;;;;;;5044873;28;20081;-75
2022/03/26 10:02:44;;;;;;;41.85;28.17;;;;;;;;;;5047418;28;20033;-73
2022/03/26 10:05:12;;;;;;;37.88;26.10;;;;;;;;;;5046956;28;20033;-74
2022/03/26 10:07:38;;;;;;;39.85;26.73;;;;;;;;;;5049812;28;20044;-74
2022/03/26 10:10:04;;;;;;;38.63;25.88;;;;;;;;;;5049550;28;20041;-74
2022/03/26 10:12:31;;;;;;;42.20;26.95;;;;;;;;;;5048017;28;20038;-72
2022/03/26 10:14:57;;;;;;;39.65;27.33;;;;;;;;;;5028650;28;20032;-74
2022/03/26 10:17:24;;;;;;;39.70;26.08;;;;;;;;;;5052228;28;20386;-74
2022/03/26 10:19:57;;;;;;;36.13;24.52;;;;;;;;;;5044467;28;20083;-73
2022/03/26 10:22:24;;;;;;;35.38;25.23;;;;;;;;;;5035273;28;20045;-74
2022/03/26 10:24:51;;;;;;;35.15;22.90;;;;;;;;;;5048995;28;20044;-73
2022/03/26 10:27:17;;;;;;;38.78;23.45;;;;;;;;;;5052452;28;20035;-76
2022/03/26 10:29:50;;;;;;;36.28;25.15;;;;;;;;;;5028523;28;20124;-73
2022/03/26 10:32:39;;;;;;;37.45;25.35;;;;;;;;;;5042634;28;20128;-73
2022/03/26 10:35:06;;;;;;;36.92;23.60;;;;;;;;;;5037723;28;20037;-74
2022/03/26 10:37:41;;;;;;;25.88;19.23;;;;;;;;;;5046025;28;20045;-74
2022/03/26 10:40:20;;;;;;;30.58;19.20;;;;;;;;;;5041596;28;20045;-74
2022/03/26 10:42:52;;;;;;;27.70;19.48;;;;;;;;;;5044242;28;20107;-73
2022/03/26 10:45:18;;;;;;;32.80;20.92;;;;;;;;;;5050110;28;20048;-73
2022/03/26 10:47:44;;;;;;;25.35;18.85;;;;;;;;;;5046131;28;20087;-74
2022/03/26 10:50:14;;;;;;;26.83;19.42;;;;;;;;;;5044469;28;20029;-76
2022/03/26 10:52:41;;;;;;;25.95;20.63;;;;;;;;;;5041471;28;20033;-77
2022/03/26 10:55:15;;;;;;;26.98;20.40;;;;;;;;;;5045057;28;20091;-75
2022/03/26 10:57:41;;;;;;;27.27;18.75;;;;;;;;;;5050094;28;20044;-74
2022/03/26 11:00:09;;;;;;;32.35;19.52;;;;;;;;;;5044762;28;20033;-74
2022/03/26 11:02:35;;;;;;;29.15;20.48;;;;;;;;;;5049430;28;20033;-74
2022/03/26 11:05:01;;;;;;;27.73;20.00;;;;;;;;;;5033860;28;20064;-74
2022/03/26 11:07:28;;;;;;;28.42;19.83;;;;;;;;;;5048121;28;20088;-74
2022/03/26 11:09:56;;;;;;;25.33;19.17;;;;;;;;;;5042725;28;20068;-74
2022/03/26 11:12:22;;;;;;;25.50;19.00;;;;;;;;;;5050175;28;20033;-74
2022/03/26 11:14:49;;;;;;;26.33;19.23;;;;;;;;;;5050596;28;20076;-74
2022/03/26 11:17:34;;;;;;;27.73;19.20;;;;;;;;;;5046458;28;20024;-74
2022/03/26 11:20:21;;;;;;;23.38;16.85;;;;;;;;;;5046715;28;20037;-74
2022/03/26 11:22:50;;;;;;;24.50;18.05;;;;;;;;;;5046198;28;20127;-74
2022/03/26 11:25:44;;;;;;;22.75;17.40;;;;;;;;;;5044077;28;20115;-74
2022/03/26 11:28:21;;;;;;;21.80;17.77;;;;;;;;;;5047367;28;20102;-75
2022/03/26 11:30:50;;;;;;;21.98;16.60;;;;;;;;;;5036577;28;20088;-74
2022/03/26 11:33:18;;;;;;;26.15;16.63;;;;;;;;;;5034615;28;20037;-74
2022/03/26 11:36:00;;;;;;;18.98;15.00;;;;;;;;;;5027553;28;20139;-74
2022/03/26 11:38:28;;;;;;;19.52;14.98;;;;;;;;;;5041461;28;20516;-74
2022/03/26 11:40:55;;;;;;;18.52;13.98;;;;;;;;;;5045806;28;20044;-74
2022/03/26 11:43:40;;;;;;;18.52;14.00;;;;;;;;;;5050322;28;20041;-73
2022/03/26 11:51:40;;;;;;;19.52;13.05;;;;;;;;;;5043382;28;20041;-73
2022/03/26 11:54:14;;;;;;;15.30;12.48;;;;;;;;;;5046676;28;20037;-73
2022/03/26 11:56:40;;;;;;;16.50;12.35;;;;;;;;;;5024947;28;20087;-73
2022/03/26 11:59:07;;;;;;;16.45;12.25;;;;;;;;;;5028806;28;20032;-73
2022/03/26 12:01:40;;;;;;;16.52;12.93;;;;;;;;;;5046896;28;20049;-74
2022/03/26 12:04:16;;;;;;;16.73;13.02;;;;;;;;;;5045670;28;20047;-74
2022/03/26 12:06:48;;;;;;;16.63;11.80;;;;;;;;;;5038919;28;20389;-74
2022/03/26 12:09:27;;;;;;;15.98;11.93;;;;;;;;;;5025507;28;20072;-74
2022/03/26 12:12:07;;;;;;;15.60;12.05;;;;;;;;;;5039284;28;20138;-74
2022/03/26 12:14:34;;;;;;;16.75;11.55;;;;;;;;;;5041245;28;20040;-74
2022/03/26 12:17:00;;;;;;;14.95;11.30;;;;;;;;;;5037946;28;20099;-73
2022/03/26 12:19:45;;;;;;;15.88;11.70;;;;;;;;;;5039293;28;20103;-74
2022/03/26 12:22:28;;;;;;;13.52;11.25;;;;;;;;;;5023646;28;20098;-74
2022/03/26 12:24:54;;;;;;;;;;;;;;;;;;5027523;28;20048;-74
2022/03/26 12:27:20;;;;;;;15.88;10.57;;;;;;;;;;5040616;28;19923;-74
2022/03/26 12:29:46;;;;;;;23.35;12.00;;;;;;;;;;5038718;28;20412;-74
2022/03/26 12:32:13;;;;;;;14.30;9.82;;;;;;;;;;5040275;28;20061;-71
2022/03/26 12:34:55;;;;;;;12.75;10.13;;;;;;;;;;5026335;28;20049;-75
2022/03/26 12:37:21;;;;;;;;;;;;;;;;;;5039670;28;20198;-74
2022/03/26 12:39:47;;;;;;;11.88;9.35;;;;;;;;;;5038837;28;19916;-75
2022/03/26 12:42:13;;;;;;;12.73;9.02;;;;;;;;;;5004072;28;20052;-76
2022/03/26 12:44:39;;;;;;;11.13;8.70;;;;;;;;;;5042285;28;20036;-74
2022/03/26 12:47:05;;;;;;;11.63;9.05;;;;;;;;;;5042308;28;20049;-74
2022/03/26 12:49:36;;;;;;;13.98;8.60;;;;;;;;;;5041445;28;20044;-75
2022/03/26 12:52:02;;;;;;;10.32;7.90;;;;;;;;;;5025262;28;20065;-75
2022/03/26 12:54:31;;;;;;;10.25;8.27;;;;;;;;;;5041520;28;20060;-74
2022/03/26 12:57:00;;;;;;;161.57;14.88;;;;;;;;;;5026193;28;20118;-74
2022/03/26 12:59:26;;;;;;;8.45;7.45;;;;;;;;;;5040552;28;20048;-74
2022/03/26 13:01:59;;;;;;;9.70;7.25;;;;;;;;;;5040591;28;20041;-75
2022/03/26 13:04:26;;;;;;;10.25;6.93;;;;;;;;;;5041622;28;20051;-74
2022/03/26 13:06:56;;;;;;;8.90;6.30;;;;;;;;;;5045317;28;20051;-77
2022/03/26 13:09:28;;;;;;;8.85;6.10;;;;;;;;;;5037817;28;20132;-74
2022/03/26 13:11:56;;;;;;;7.18;5.55;;;;;;;;;;5023652;28;20037;-74
2022/03/26 13:14:22;;;;;;;9.15;5.82;;;;;;;;;;5040008;28;20040;-74
2022/03/26 13:16:52;;;;;;;6.53;5.82;;;;;;;;;;5039446;28;20055;-74
2022/03/26 13:19:19;;;;;;;8.45;5.85;;;;;;;;;;5037657;28;20033;-74
2022/03/26 13:21:47;;;;;;;7.03;5.57;;;;;;;;;;5041269;28;20045;-74
2022/03/26 13:24:14;;;;;;;9.13;5.95;;;;;;;;;;5027811;28;20072;-74
2022/03/26 13:26:41;;;;;;;8.68;5.40;;;;;;;;;;5039245;28;20033;-74
2022/03/26 13:29:11;;;;;;;9.55;4.78;;;;;;;;;;5023473;28;20099;-74
2022/03/26 13:31:42;;;;;;;7.20;4.43;;;;;;;;;;5027288;28;20087;-74
2022/03/26 13:34:11;;;;;;;8.02;4.80;;;;;;;;;;5024890;28;20037;-74
2022/03/26 13:36:37;;;;;;;7.72;4.25;;;;;;;;;;5039179;28;20433;-74
2022/03/26 13:39:14;;;;;;;7.85;4.35;;;;;;;;;;5021927;28;20128;-74
2022/03/26 13:41:40;;;;;;;6.65;4.10;;;;;;;;;;5036029;28;20047;-74
2022/03/26 13:44:06;;;;;;;8.13;4.03;;;;;;;;;;5040686;28;20120;-74
2022/03/26 13:46:32;;;;;;;5.70;3.83;;;;;;;;;;5042936;28;20041;-74
2022/03/26 13:48:59;;;;;;;5.82;3.55;;;;;;;;;;5043981;28;20044;-74
2022/03/26 13:51:26;;;;;;;9.27;3.33;;;;;;;;;;5023223;28;20059;-74
2022/03/26 13:53:52;;;;;;;5.00;3.17;;;;;;;;;;5041725;28;20033;-74
2022/03/26 13:56:18;;;;;;;6.72;3.63;;;;;;;;;;5042907;28;20044;-74
2022/03/26 13:58:51;;;;;;;5.60;3.20;;;;;;;;;;5046064;28;20068;-74
2022/03/26 14:01:19;;;;;;;5.03;3.63;;;;;;;;;;5040057;28;20040;-74
2022/03/26 14:03:45;;;;;;;5.55;3.85;;;;;;;;;;5043574;28;20046;-74
2022/03/26 14:06:11;;;;;;;5.68;3.47;;;;;;;;;;5028649;28;20135;-74
2022/03/26 14:08:37;;;;;;;7.03;3.90;;;;;;;;;;5041194;28;20040;-74
2022/03/26 14:11:03;;;;;;;8.27;4.00;;;;;;;;;;5038386;28;20045;-73
2022/03/26 14:13:29;;;;;;;5.18;3.97;;;;;;;;;;5041560;28;20051;-74
2022/03/26 14:15:55;;;;;;;6.22;3.63;;;;;;;;;;5042376;28;20081;-74
2022/03/26 14:18:22;;;;;;;5.05;3.67;;;;;;;;;;5029328;28;20036;-74
2022/03/26 14:20:48;;;;;;;4.40;3.65;;;;;;;;;;5041911;28;20037;-74
2022/03/26 14:23:15;;;;;;;6.57;3.80;;;;;;;;;;5043115;28;20067;-74
2022/03/26 14:25:42;;;;;;;5.20;4.22;;;;;;;;;;5043210;28;20044;-74